• Join FlightAware (Why Join?)
  • Login
  • US Flag 
01:04AM EST


 

Airport Tracker/Info


-or-


 

Live Flight TrackerFlight Track Log ✈ ZK-PBG ✈ 20-Apr-2013 ✈ YBBN / BNE - NSFA / APW

Flight Track Log - Related Links

Times and Time Zones

All times are in EDT time to prevent confusion due to time zone crossing. See the ZK-PBG flight status page for this flight to view local times or setup timezone preferences in your user account.

Time Position Orientation Groundspeed Altitude Reporting Facility
EDT Latitude Longitude Course Direction KTS MPH feet Rate Location/Type
07:27AM -27.3625 153.1430 67° East 196 226 1,100  Level Aus ATC (RADAR)
07:28AM -27.3610 153.1470 52° Northeast 207 238 1,400 1,800 Climbing FlightAware
07:28AM -27.3540 153.1610 61° Northeast 216 249 1,800 1,620 Climbing FlightAware
07:28AM -27.3440 153.1910 69° East 241 277 2,500 2,340 Climbing FlightAware
07:28AM -27.3358 153.2152 69° East 243 280 3,400 2,160 Climbing Aus ATC (RADAR)
07:29AM -27.3320 153.2270 69° East 264 304 3,600 1,320 Climbing FlightAware
07:29AM -27.3202 153.2622 69° East 276 318 4,200 1,380 Climbing Aus ATC (RADAR)
07:29AM -27.3190 153.2670 69° East 305 351 4,300 2,820 Climbing FlightAware
07:30AM -27.3050 153.3060 68° East 305 351 5,800 3,300 Climbing FlightAware
07:30AM -27.2980 153.3290 71° East 308 354 6,500 1,920 Climbing FlightAware
07:30AM -27.2866 153.3601 71° East 315 362 6,800 1,680 Climbing Aus ATC (RADAR)
07:30AM -27.2840 153.3670 71° East 334 384 7,200 2,880 Climbing FlightAware
07:31AM -27.2664 153.4183 71° East 339 390 8,500 2,580 Climbing Aus ATC (RADAR)
07:31AM -27.2670 153.4170 71° East 346 398 8,500 2,520 Level FlightAware
07:32AM -27.2410 153.4930 69° East 356 410 10,600 3,000 Climbing FlightAware
07:32AM -27.2258 153.5376 69° East 355 409 11,800 2,100 Climbing Aus ATC (RADAR)
07:32AM -27.2170 153.5630 69° East 376 433 12,000 840 Climbing FlightAware
07:32AM -27.2033 153.6019 69° East 378 435 12,300 1,620 Climbing Aus ATC (RADAR)
07:33AM -27.1910 153.6400 69° East 407 468 13,100 2,400 Climbing FlightAware
07:33AM -27.1695 153.7009 69° East 409 471 14,300 2,400 Climbing Aus ATC (RADAR)
07:34AM -27.1600 153.7290 69° East 416 479 14,900 2,220 Climbing FlightAware
07:34AM -27.1368 153.7911 69° East 418 481 16,000 2,220 Climbing Aus ATC (RADAR)
07:34AM -27.1330 153.8030 69° East 425 489 16,400 1,920 Climbing FlightAware
07:35AM -27.0960 153.9050 69° East 436 502 17,900 2,160 Climbing FlightAware
07:35AM -27.0921 153.9153 69° East 432 497 18,100 1,800 Climbing Aus ATC (RADAR)
07:36AM -27.0660 153.9890 68° East 447 514 19,100 1,620 Climbing FlightAware
07:36AM -27.0350 154.0760 68° East 457 526 20,300 1,800 Climbing FlightAware
07:37AM -27.0113 154.1437 68° East 459 528 21,100 1,740 Climbing Aus ATC (RADAR)
07:37AM -26.9991 154.1773 68° East 462 532 21,500 1,260 Climbing Aus ATC (RADAR)
07:37AM -26.9990 154.1780 68° East 470 541 21,500 1,380 Level FlightAware
07:38AM -26.9746 154.2454 68° East 469 540 22,200 1,500 Climbing Aus ATC (RADAR)
07:38AM -26.9670 154.2670 68° East 479 551 22,500 1,500 Climbing FlightAware
07:38AM -26.9291 154.3735 68° East 480 552 23,600 1,320 Climbing Aus ATC (RADAR)
07:39AM -26.9290 154.3730 68° East 492 566 23,500 1,080 Descending FlightAware
07:39AM -26.8900 154.4813 68° East 496 571 24,400 1,200 Climbing Aus ATC (RADAR)
07:39AM -26.8950 154.4690 68° East 504 580 24,300 1,200 Descending FlightAware
07:40AM -26.8600 154.5650 68° East 512 589 25,200 1,380 Climbing FlightAware
07:40AM -26.8324 154.6407 68° East 507 583 25,800 1,320 Climbing Aus ATC (RADAR)
07:41AM -26.8189 154.6778 68° East 510 587 26,100 1,200 Climbing Aus ATC (RADAR)
07:41AM -26.8190 154.6780 68° East 517 595 26,200 1,380 Climbing FlightAware
07:41AM -26.7916 154.7521 68° East 512 589 26,800 1,320 Climbing Aus ATC (RADAR)
07:41AM -26.7830 154.7780 68° East 521 600 27,100 1,200 Climbing FlightAware
07:42AM -26.7421 154.8901 68° East 518 596 27,900 1,200 Climbing Aus ATC (RADAR)
07:42AM -26.7470 154.8770 68° East 524 603 27,900 1,560 Level FlightAware
07:43AM -26.7018 155.0034 68° East 515 593 29,100 1,440 Climbing Aus ATC (RADAR)
07:43AM -26.7000 155.0040 68° East 524 603 29,100 900 Level FlightAware
07:43AM -26.6640 155.1040 68° East 527 606 29,800 1,200 Climbing FlightAware
07:44AM -26.6414 155.1659 68° East 518 596 30,300 1,200 Climbing Aus ATC (RADAR)
07:44AM -26.6270 155.2040 68° East 528 608 30,600 960 Climbing FlightAware
07:45AM -26.5870 155.3140 68° East 530 610 31,400 1,020 Climbing FlightAware
07:45AM -26.5579 155.3931 68° East 522 601 31,800 1,020 Climbing Aus ATC (RADAR)
07:46AM -26.5439 155.4311 68° East 524 603 32,100 780 Climbing Aus ATC (RADAR)
07:46AM -26.5500 155.4130 68° East 532 612 32,000 840 Descending FlightAware
07:46AM -26.5112 155.5200 68° East 523 602 32,600 900 Climbing Aus ATC (RADAR)
07:46AM -26.5120 155.5160 68° East 534 615 32,600 960 Level FlightAware
07:47AM -26.4647 155.6475 68° East 525 604 33,400 1,020 Climbing Aus ATC (RADAR)
07:47AM -26.4670 155.6370 68° East 533 613 33,400 1,020 Level FlightAware
07:48AM -26.4300 155.7370 68° East 532 612 34,100 600 Climbing FlightAware
07:48AM -26.3950 155.8290 67° East 532 612 34,200 720 Climbing FlightAware
07:49AM -26.3560 155.9379 67° East 522 601 35,000 1,020 Climbing Aus ATC (RADAR)
07:49AM -26.3510 155.9490 67° East 530 610 35,000  Level FlightAware
07:49AM -26.3279 156.0135 67° East 519 597 35,000  Level Aus ATC (RADAR)
07:50AM -26.3090 156.0600 67° East 528 608 35,000  Level FlightAware
07:50AM -26.2766 156.1511 67° East 516 594 35,000  Level Aus ATC (RADAR)
07:50AM -26.2710 156.1610 67° East 526 605 35,000 -240 Level FlightAware
07:51AM -26.2482 156.2257 67° East 515 593 34,900  Descending Aus ATC (RADAR)
07:51AM -26.2400 156.2440 67° East 526 605 35,000 120 Climbing FlightAware
07:52AM -26.2052 156.3378 67° East 515 593 35,000  Level Aus ATC (RADAR)
07:52AM -26.1910 156.3720 67° East 526 605 35,000  Level FlightAware
07:52AM -26.1685 156.4380 67° East 517 595 35,000  Level Aus ATC (RADAR)
07:53AM -26.1590 156.4570 67° East 526 605 35,000  Level FlightAware
07:53AM -26.1160 156.5710 67° East 531 611 35,000  Level FlightAware
07:54AM -26.0929 156.6390 67° East 519 597 35,000  Level Aus ATC (RADAR)
07:54AM -26.0781 156.6766 66° East 519 597 35,000  Level Aus ATC (RADAR)
07:54AM -26.0740 156.6820 66° East 531 611 35,000  Level FlightAware
07:54AM -26.0491 156.7521 66° East 521 600 35,000  Level Aus ATC (RADAR)
07:55AM -26.0410 156.7680 66° East 531 611 35,000  Level FlightAware
07:55AM -25.9967 156.8904 66° East 519 597 35,000  Level Aus ATC (RADAR)
07:55AM -26.0010 156.8720 66° East 533 613 35,000  Level FlightAware
07:56AM -25.9525 157.0031 66° East 519 597 35,000  Level Aus ATC (RADAR)
07:56AM -25.9680 156.9580 66° East 533 613 35,000  Level FlightAware
07:56AM -26.1050 156.5990 247° West 35,000  Level FlightAware
07:57AM -25.9133 157.1034 247° West 521 600 35,000  Level Aus ATC (RADAR)
07:57AM -25.8636 157.1953 59° Northeast 512 589 35,000  Level Aus ATC (RADAR)
07:58AM -25.8130 157.2698 53° Northeast 510 587 35,000  Level Aus ATC (RADAR)
07:59AM -25.7408 157.3781 54° Northeast 515 593 35,000  Level Aus ATC (RADAR)
07:59AM -25.7131 157.4226 55° Northeast 517 595 35,000  Level Aus ATC (RADAR)
08:00AM -25.6667 157.5017 57° Northeast 517 595 35,000  Level Aus ATC (RADAR)
08:00AM -25.6089 157.6044 58° Northeast 515 593 35,000  Level Aus ATC (RADAR)
08:01AM -25.5631 157.6824 57° Northeast 514 592 35,000  Level Aus ATC (RADAR)
08:04AM -25.3813 158.2018 69° East 35,000  Level Aus ATC (Calculated)
08:06AM -25.3175 158.3841 69° East  Level FlightAware Approximate
08:07AM -25.2722 158.5126 69° East  Level FlightAware Approximate
08:08AM -25.2269 158.6410 69° East  Level FlightAware Approximate
08:09AM -25.1815 158.7693 69° East  Level FlightAware Approximate
08:10AM -25.1359 158.8975 69° East  Level FlightAware Approximate
08:11AM -25.0903 159.0257 69° East  Level FlightAware Approximate
08:12AM -25.0445 159.1537 68° East  Level FlightAware Approximate
08:13AM -24.9986 159.2816 68° East  Level FlightAware Approximate
08:14AM -24.9526 159.4095 68° East  Level FlightAware Approximate
08:15AM -24.9065 159.5372 68° East  Level FlightAware Approximate
08:16AM -24.8603 159.6649 68° East  Level FlightAware Approximate
08:17AM -24.8140 159.7924 68° East  Level FlightAware Approximate
08:18AM -24.7676 159.9199 68° East  Level FlightAware Approximate
08:19AM -24.7210 160.0472 68° East  Level FlightAware Approximate
08:19AM -24.5362 160.3938 67° East 35,000  Level Aus ATC (Calculated)
08:20AM -24.4712 160.5579 66° East 35,000  Level Aus ATC (Calculated)
08:21AM -24.4110 160.7092 66° East 35,000  Level Aus ATC (Calculated)
08:22AM -24.3535 160.8533 240° Southwest 35,000  Level Aus ATC (Calculated)
08:23AM -24.4154 160.7345 240° Southwest  Level FlightAware Approximate
08:24AM -24.4772 160.6156 240° Southwest  Level FlightAware Approximate
08:25AM -24.5390 160.4966 240° Southwest  Level FlightAware Approximate
08:26AM -24.6006 160.3774 240° Southwest  Level FlightAware Approximate
08:27AM -24.5389 160.4965 60° Northeast  Level FlightAware Approximate
08:28AM -24.6006 160.3774 240° Southwest  Level FlightAware Approximate
08:29AM -24.5794 160.4268 65° Northeast  Level FlightAware Approximate
08:30AM -24.5274 160.5514 65° Northeast  Level FlightAware Approximate
08:31AM -24.4752 160.6758 65° Northeast  Level FlightAware Approximate
08:32AM -24.4230 160.8002 65° Northeast  Level FlightAware Approximate
08:32AM -23.7801 162.2653 66° East 35,000  Level Aus ATC (Calculated)
08:33AM -23.7288 162.3895 66° East  Level FlightAware Approximate
08:34AM -23.6774 162.5135 66° East  Level FlightAware Approximate
08:35AM -23.6259 162.6375 66° East  Level FlightAware Approximate
08:36AM -23.5743 162.7614 66° East  Level FlightAware Approximate
08:37AM -23.5227 162.8851 66° East  Level FlightAware Approximate
08:38AM -23.4709 163.0088 65° Northeast  Level FlightAware Approximate
08:39AM -23.5227 162.8852 245° Southwest  Level FlightAware Approximate
08:40AM -23.4709 163.0088 65° Northeast  Level FlightAware Approximate
08:41AM -23.5227 162.8852 245° Southwest  Level FlightAware Approximate
08:42AM -23.4709 163.0088 65° Northeast  Level FlightAware Approximate
08:43AM -23.5227 162.8852 245° Southwest  Level FlightAware Approximate
08:44AM -23.4709 163.0088 65° Northeast  Level FlightAware Approximate
08:45AM -23.5227 162.8852 245° Southwest  Level FlightAware Approximate
08:46AM -23.4709 163.0088 65° Northeast  Level FlightAware Approximate
08:47AM -23.5227 162.8852 245° Southwest  Level FlightAware Approximate
08:48AM -23.4709 163.0088 65° Northeast  Level FlightAware Approximate
08:49AM -23.5227 162.8852 245° Southwest  Level FlightAware Approximate
08:50AM -23.4847 163.0146 68° East  Level Estimated
08:51AM -23.4376 163.1405 68° East  Level FlightAware Approximate
08:52AM -23.3904 163.2663 68° East  Level FlightAware Approximate
08:53AM -23.3431 163.3919 68° East  Level FlightAware Approximate
08:54AM -23.2957 163.5175 68° East  Level FlightAware Approximate
08:55AM -23.2482 163.6430 68° East  Level FlightAware Approximate
08:56AM -23.2006 163.7684 68° East  Level FlightAware Approximate
08:57AM -23.1529 163.8937 68° East  Level FlightAware Approximate
08:58AM -23.1051 164.0189 67° East  Level FlightAware Approximate
08:59AM -23.0572 164.1440 67° East  Level FlightAware Approximate
09:00AM -23.0093 164.2691 67° East  Level FlightAware Approximate
09:01AM -22.9612 164.3940 67° East  Level FlightAware Approximate
09:02AM -22.9130 164.5189 67° East  Level FlightAware Approximate
09:03AM -22.8647 164.6437 67° East  Level FlightAware Approximate
09:04AM -22.8163 164.7684 67° East  Level FlightAware Approximate
09:05AM -22.7679 164.8930 67° East  Level FlightAware Approximate
09:06AM -22.7193 165.0175 67° East  Level FlightAware Approximate
09:07AM -22.6706 165.1419 67° East  Level FlightAware Approximate
09:08AM -22.6218 165.2662 67° East  Level FlightAware Approximate
09:09AM -22.5730 165.3905 67° East  Level FlightAware Approximate
09:10AM -22.5240 165.5146 67° East  Level FlightAware Approximate
09:11AM -22.4750 165.6387 67° East  Level FlightAware Approximate
09:12AM -22.4258 165.7627 67° East  Level FlightAware Approximate
09:13AM -22.3766 165.8866 67° East  Level FlightAware Approximate
09:14AM -22.3273 166.0104 67° East  Level FlightAware Approximate
09:15AM -22.2778 166.1341 67° East  Level FlightAware Approximate
09:16AM -22.2283 166.2577 67° East  Level FlightAware Approximate
09:17AM -22.1787 166.3813 67° East  Level FlightAware Approximate
09:18AM -22.1290 166.5047 67° East  Level FlightAware Approximate
09:19AM -22.0792 166.6281 66° East  Level FlightAware Approximate
09:20AM -22.0293 166.7513 66° East  Level FlightAware Approximate
09:21AM -21.9793 166.8745 66° East  Level FlightAware Approximate
09:22AM -21.9292 166.9977 66° East  Level FlightAware Approximate
09:23AM -21.8790 167.1207 66° East  Level FlightAware Approximate
09:24AM -21.8288 167.2436 66° East  Level FlightAware Approximate
09:25AM -21.7784 167.3665 66° East  Level FlightAware Approximate
09:26AM -21.7280 167.4892 66° East  Level FlightAware Approximate
09:27AM -21.6775 167.6119 66° East  Level FlightAware Approximate
09:28AM -21.6269 167.7345 66° East  Level FlightAware Approximate
09:29AM -21.5761 167.8570 66° East  Level FlightAware Approximate
09:30AM -21.5253 167.9794 66° East  Level FlightAware Approximate
09:31AM -21.4744 168.1017 66° East  Level FlightAware Approximate
09:32AM -21.4235 168.2240 66° East  Level FlightAware Approximate
09:33AM -21.3724 168.3461 66° East  Level FlightAware Approximate
09:34AM -21.3212 168.4682 66° East  Level FlightAware Approximate
09:35AM -21.2700 168.5902 66° East  Level FlightAware Approximate
09:36AM -21.2187 168.7121 66° East  Level FlightAware Approximate
09:37AM -21.1672 168.8339 66° East  Level FlightAware Approximate
09:38AM -21.1157 168.9556 66° East  Level FlightAware Approximate
09:39AM -21.0641 169.0773 66° East  Level FlightAware Approximate
09:40AM -21.0125 169.1989 66° East  Level FlightAware Approximate
09:41AM -20.9607 169.3203 65° Northeast  Level FlightAware Approximate
09:42AM -20.9088 169.4417 65° Northeast  Level FlightAware Approximate
09:43AM -20.8569 169.5630 65° Northeast  Level FlightAware Approximate
09:44AM -20.8049 169.6843 65° Northeast  Level FlightAware Approximate
09:45AM -20.7528 169.8054 65° Northeast  Level FlightAware Approximate
09:46AM -20.7006 169.9265 65° Northeast  Level FlightAware Approximate
09:47AM -20.6483 170.0475 65° Northeast  Level FlightAware Approximate
09:48AM -20.5959 170.1684 65° Northeast  Level FlightAware Approximate
09:49AM -20.5435 170.2892 65° Northeast  Level FlightAware Approximate
09:50AM -20.4909 170.4099 65° Northeast  Level FlightAware Approximate
09:51AM -20.4506 170.5358 68° East  Level Estimated
09:52AM -20.4035 170.6590 68° East  Level FlightAware Approximate
09:53AM -20.3562 170.7821 68° East  Level FlightAware Approximate
09:54AM -20.3088 170.9051 68° East  Level FlightAware Approximate
09:55AM -20.2614 171.0280 68° East  Level FlightAware Approximate
09:56AM -20.2139 171.1508 68° East  Level FlightAware Approximate
09:57AM -20.1663 171.2736 68° East  Level FlightAware Approximate
09:58AM -20.1186 171.3963 68° East  Level FlightAware Approximate
09:59AM -20.0708 171.5190 67° East  Level FlightAware Approximate
10:00AM -20.0229 171.6415 67° East  Level FlightAware Approximate
10:01AM -19.9750 171.7640 67° East  Level FlightAware Approximate
10:02AM -19.9270 171.8864 67° East  Level FlightAware Approximate
10:03AM -19.8789 172.0087 67° East  Level FlightAware Approximate
10:04AM -19.8307 172.1310 67° East  Level FlightAware Approximate
10:05AM -19.7824 172.2531 67° East  Level FlightAware Approximate
10:06AM -19.7340 172.3752 67° East  Level FlightAware Approximate
10:07AM -19.6856 172.4973 67° East  Level FlightAware Approximate
10:08AM -19.6371 172.6192 67° East  Level FlightAware Approximate
10:09AM -19.5884 172.7411 67° East  Level FlightAware Approximate
10:10AM -19.5397 172.8629 67° East  Level FlightAware Approximate
10:11AM -19.4910 172.9847 67° East  Level FlightAware Approximate
10:12AM -19.4421 173.1063 67° East  Level FlightAware Approximate
10:13AM -19.3932 173.2279 67° East  Level FlightAware Approximate
10:14AM -19.3442 173.3494 67° East  Level FlightAware Approximate
10:15AM -19.2951 173.4709 67° East  Level FlightAware Approximate
10:16AM -19.2459 173.5922 67° East  Level FlightAware Approximate
10:17AM -19.1966 173.7135 67° East  Level FlightAware Approximate
10:18AM -19.1473 173.8348 67° East  Level FlightAware Approximate
10:19AM -19.0979 173.9559 67° East  Level FlightAware Approximate
10:20AM -19.0484 174.0770 67° East  Level FlightAware Approximate
10:21AM -18.9988 174.1980 67° East  Level FlightAware Approximate
10:22AM -18.9492 174.3190 67° East  Level FlightAware Approximate
10:23AM -18.8994 174.4398 67° East  Level FlightAware Approximate
10:24AM -18.8496 174.5606 66° East  Level FlightAware Approximate
10:25AM -18.7997 174.6813 66° East  Level FlightAware Approximate
10:26AM -18.7498 174.8020 66° East  Level FlightAware Approximate
10:27AM -18.6997 174.9225 66° East  Level FlightAware Approximate
10:28AM -18.6496 175.0431 66° East  Level FlightAware Approximate
10:29AM -18.5994 175.1635 66° East  Level FlightAware Approximate
10:30AM -18.5491 175.2838 66° East  Level FlightAware Approximate
10:31AM -18.4988 175.4041 66° East  Level FlightAware Approximate
10:32AM -18.4484 175.5244 66° East  Level FlightAware Approximate
10:33AM -18.3979 175.6445 66° East  Level FlightAware Approximate
10:34AM -18.3473 175.7646 66° East  Level FlightAware Approximate
10:35AM -18.3062 175.8886 66° East  Level Estimated
10:36AM -18.2550 176.0083 66° East  Level FlightAware Approximate
10:37AM -18.2038 176.1280 66° East  Level FlightAware Approximate
10:38AM -18.1525 176.2476 66° East  Level FlightAware Approximate
10:39AM -18.1011 176.3671 66° East  Level FlightAware Approximate
10:40AM -18.0496 176.4866 66° East  Level FlightAware Approximate
10:41AM -17.9981 176.6060 66° East  Level FlightAware Approximate
10:42AM -17.9465 176.7253 66° East  Level FlightAware Approximate
10:43AM -17.8948 176.8445 66° East  Level FlightAware Approximate
10:44AM -17.8431 176.9637 65° Northeast  Level FlightAware Approximate
10:45AM -17.7912 177.0828 65° Northeast  Level FlightAware Approximate
10:46AM -17.7393 177.2019 65° Northeast  Level FlightAware Approximate
10:47AM -17.6874 177.3208 65° Northeast  Level FlightAware Approximate
10:48AM -17.6466 177.4445 71° East  Level Estimated
10:49AM -17.6058 177.5681 71° East  Level FlightAware Approximate
10:50AM -17.5649 177.6917 71° East  Level FlightAware Approximate
10:51AM -17.5239 177.8152 71° East  Level FlightAware Approximate
10:52AM -17.4829 177.9386 71° East  Level FlightAware Approximate
10:53AM -17.4418 178.0620 71° East  Level FlightAware Approximate
10:54AM -17.4006 178.1853 71° East  Level FlightAware Approximate
10:55AM -17.3593 178.3086 71° East  Level FlightAware Approximate
10:56AM -17.3179 178.4318 71° East  Level FlightAware Approximate
10:57AM -17.2765 178.5550 71° East  Level FlightAware Approximate
10:58AM -17.2350 178.6781 71° East  Level FlightAware Approximate
10:59AM -17.1934 178.8011 71° East  Level FlightAware Approximate
11:00AM -17.1518 178.9241 71° East  Level FlightAware Approximate
11:01AM -17.1101 179.0471 70° East  Level FlightAware Approximate
11:02AM -17.0683 179.1700 70° East  Level FlightAware Approximate
11:03AM -17.0264 179.2928 70° East  Level FlightAware Approximate
11:04AM -16.9844 179.4156 70° East  Level FlightAware Approximate
11:05AM -16.9424 179.5383 70° East  Level FlightAware Approximate
11:06AM -16.9003 179.6610 70° East  Level FlightAware Approximate
11:07AM -16.8582 179.7836 70° East  Level FlightAware Approximate
11:08AM -16.8159 179.9061 70° East  Level FlightAware Approximate
11:09AM -16.7736 -179.9714 70° East  Level FlightAware Approximate
11:10AM -16.7312 -179.8489 70° East  Level FlightAware Approximate
11:11AM -16.6888 -179.7265 70° East  Level FlightAware Approximate
11:12AM -16.6462 -179.6042 70° East  Level FlightAware Approximate
11:13AM -16.6036 -179.4819 70° East  Level FlightAware Approximate
11:14AM -16.5610 -179.3597 70° East  Level FlightAware Approximate
11:15AM -16.5182 -179.2375 70° East  Level FlightAware Approximate
11:16AM -16.4754 -179.1154 70° East  Level FlightAware Approximate
11:17AM -16.4325 -178.9933 70° East  Level FlightAware Approximate
11:18AM -16.3896 -178.8713 70° East  Level FlightAware Approximate
11:19AM -16.3466 -178.7493 70° East  Level FlightAware Approximate
11:20AM -16.3035 -178.6274 70° East  Level FlightAware Approximate
11:21AM -16.2603 -178.5056 70° East  Level FlightAware Approximate
11:22AM -16.2171 -178.3837 70° East  Level FlightAware Approximate
11:23AM -16.1738 -178.2620 70° East  Level FlightAware Approximate
11:24AM -16.1304 -178.1403 70° East  Level FlightAware Approximate
11:25AM -16.0870 -178.0187 70° East  Level FlightAware Approximate
11:26AM -16.0434 -177.8971 70° East  Level FlightAware Approximate
11:27AM -15.9999 -177.7755 70° East  Level FlightAware Approximate
11:28AM -15.9562 -177.6541 70° East  Level FlightAware Approximate
11:29AM -15.9125 -177.5326 69° East  Level FlightAware Approximate
11:30AM -15.8687 -177.4113 69° East  Level FlightAware Approximate
11:31AM -15.8249 -177.2899 69° East  Level FlightAware Approximate
11:32AM -15.7809 -177.1687 69° East  Level FlightAware Approximate
11:33AM -15.7370 -177.0475 69° East  Level FlightAware Approximate
11:34AM -15.6929 -176.9263 69° East  Level FlightAware Approximate
11:35AM -15.6488 -176.8052 69° East  Level FlightAware Approximate
11:36AM -15.6046 -176.6841 69° East  Level FlightAware Approximate
11:37AM -15.5604 -176.5631 69° East  Level FlightAware Approximate
11:38AM -15.5160 -176.4421 69° East  Level FlightAware Approximate
11:39AM -15.4717 -176.3212 69° East  Level FlightAware Approximate
11:40AM -15.4272 -176.2004 69° East  Level FlightAware Approximate
11:41AM -15.3827 -176.0796 69° East  Level FlightAware Approximate
11:42AM -15.3381 -175.9588 69° East  Level FlightAware Approximate
11:43AM -15.2935 -175.8381 69° East  Level FlightAware Approximate
11:44AM -15.2488 -175.7175 69° East  Level FlightAware Approximate
11:45AM -15.2040 -175.5969 69° East  Level FlightAware Approximate
11:46AM -15.1592 -175.4764 69° East  Level FlightAware Approximate
11:47AM -15.1143 -175.3559 69° East  Level FlightAware Approximate
11:48AM -15.0693 -175.2354 69° East  Level FlightAware Approximate
11:49AM -15.0243 -175.1150 69° East  Level FlightAware Approximate
11:50AM -14.9792 -174.9947 69° East  Level FlightAware Approximate
11:51AM -14.9340 -174.8744 69° East  Level FlightAware Approximate
11:52AM -14.8888 -174.7542 69° East  Level FlightAware Approximate
11:53AM -14.8435 -174.6340 69° East  Level FlightAware Approximate
11:54AM -14.7982 -174.5138 69° East  Level FlightAware Approximate
11:55AM -14.7528 -174.3938 69° East  Level FlightAware Approximate
11:56AM -14.7073 -174.2737 69° East  Level FlightAware Approximate
11:57AM -14.6617 -174.1537 69° East  Level FlightAware Approximate
11:58AM -14.6162 -174.0338 69° East  Level FlightAware Approximate
11:59AM -14.5705 -173.9139 69° East  Level FlightAware Approximate
12:00PM -14.5248 -173.7941 69° East  Level FlightAware Approximate
12:01PM -14.4790 -173.6743 68° East  Level FlightAware Approximate
12:02PM -14.4332 -173.5545 68° East  Level FlightAware Approximate
12:03PM -14.3873 -173.4348 68° East  Level FlightAware Approximate
12:04PM -14.3413 -173.3152 68° East  Level FlightAware Approximate
12:05PM -14.2953 -173.1956 68° East  Level FlightAware Approximate
12:06PM -14.2492 -173.0761 68° East  Level FlightAware Approximate
12:07PM -14.2031 -172.9566 68° East  Level FlightAware Approximate
12:08PM -14.1569 -172.8371 68° East  Level FlightAware Approximate
12:09PM -14.1107 -172.7177 68° East  Level FlightAware Approximate
12:10PM -14.0644 -172.5984 68° East  Level FlightAware Approximate
12:11PM -14.0180 -172.4791 68° East  Level FlightAware Approximate
12:12PM -13.9715 -172.3598 68° East  Level FlightAware Approximate
12:13PM -13.9251 -172.2406 68° East  Level FlightAware Approximate
12:14PM -13.8785 -172.1215 68° East  Level FlightAware Approximate
12:15PM -13.8300 -172.0083 71° East  Level Estimated
12:16PM -13.8300 -172.0083 71° East  Level Estimated
12:17PM -13.8300 -172.0083 71° East  Level Estimated
12:18PM -13.8300 -172.0083 71° East  Level Estimated
12:19PM -13.8300 -172.0083 71° East  Level Estimated
12:20PM -13.8300 -172.0083 71° East  Level Estimated
12:21PM -13.8300 -172.0083 71° East  Level Estimated
12:22PM -13.8300 -172.0083 71° East  Level Estimated